Time,TemperatureF,DewpointF,PressureIn,WindDirection,WindDirectionDegrees,WindSpeedMPH,WindSpeedGustMPH,Humidity,HourlyPrecipIn,Conditions,Clouds,dailyrainin,SoftwareType,DateUTC
2013-01-12 00:01:00,41.7,40.1,29.92,South,178,0.0,-999.0,94,0.00,,,0.00,Wunderground v.1.15,2013-01-12 05:01:00,
2013-01-12 00:02:00,41.7,40.1,29.92,South,178,0.0,-999.0,94,0.00,,,0.00,Wunderground v.1.15,2013-01-12 05:02:00,
2013-01-12 00:03:00,41.8,40.2,29.92,South,178,0.0,-999.0,94,0.00,,,0.00,Wunderground v.1.15,2013-01-12 05:03:00,
2013-01-12 00:04:00,41.8,40.2,29.92,South,178,0.0,-999.0,94,0.00,,,0.00,Wunderground v.1.15,2013-01-12 05:04:00,
2013-01-12 00:09:00,42.0,40.4,29.92,South,178,0.0,-999.0,94,0.00,,,0.00,Wunderground v.1.15,2013-01-12 05:09:00,
2013-01-12 00:15:00,42.5,40.9,29.92,South,178,0.0,-999.0,94,0.00,,,0.00,Wunderground v.1.15,2013-01-12 05:15:00,
2013-01-12 00:21:00,43.0,41.4,29.92,South,178,0.0,-999.0,94,0.00,,,0.00,Wunderground v.1.15,2013-01-12 05:21:00,
2013-01-12 00:27:00,43.3,41.7,29.92,South,178,0.0,-999.0,94,0.00,,,0.00,Wunderground v.1.15,2013-01-12 05:27:00,
2013-01-12 00:33:00,44.4,42.8,29.92,South,178,0.0,-999.0,94,0.00,,,0.00,Wunderground v.1.15,2013-01-12 05:33:00,
2013-01-12 00:39:00,45.0,43.4,29.91,South,178,0.0,-999.0,94,0.00,,,0.00,Wunderground v.1.15,2013-01-12 05:39:00,
2013-01-12 00:45:00,45.0,43.4,29.92,South,178,0.0,-999.0,94,0.00,,,0.00,Wunderground v.1.15,2013-01-12 05:45:00,
2013-01-12 00:50:00,44.9,43.3,29.91,South,178,0.0,-999.0,94,0.00,,,0.00,Wunderground v.1.15,2013-01-12 05:50:00,
2013-01-12 00:56:00,44.7,43.1,29.92,South,178,0.0,-999.0,94,0.00,,,0.00,Wunderground v.1.15,2013-01-12 05:56:00,
2013-01-12 01:02:00,44.8,43.2,29.92,South,178,0.0,-999.0,94,0.00,,,0.00,Wunderground v.1.15,2013-01-12 06:02:00,
2013-01-12 01:08:00,45.0,43.4,29.92,South,178,0.0,-999.0,94,0.00,,,0.00,Wunderground v.1.15,2013-01-12 06:08:00,
2013-01-12 01:14:00,45.1,43.5,29.92,South,178,0.0,-999.0,94,0.00,,,0.00,Wunderground v.1.15,2013-01-12 06:14:00,
2013-01-12 01:20:00,45.2,43.6,29.92,South,178,0.0,-999.0,94,0.00,,,0.00,Wunderground v.1.15,2013-01-12 06:20:00,
2013-01-12 01:26:00,45.1,43.5,29.92,South,178,0.0,-999.0,94,0.00,,,0.00,Wunderground v.1.15,2013-01-12 06:26:00,
2013-01-12 01:32:00,45.1,43.5,29.92,South,178,0.0,-999.0,94,0.00,,,0.00,Wunderground v.1.15,2013-01-12 06:32:00,
2013-01-12 01:37:00,45.2,43.6,29.93,South,178,0.0,-999.0,94,0.00,,,0.00,Wunderground v.1.15,2013-01-12 06:37:00,
2013-01-12 01:43:00,45.2,43.6,29.93,South,178,0.0,-999.0,94,0.00,,,0.00,Wunderground v.1.15,2013-01-12 06:43:00,
2013-01-12 01:49:00,45.6,44.0,29.92,South,178,0.0,-999.0,94,0.00,,,0.00,Wunderground v.1.15,2013-01-12 06:49:00,
2013-01-12 01:54:00,45.9,44.3,29.93,South,178,0.0,-999.0,94,0.00,,,0.00,Wunderground v.1.15,2013-01-12 06:54:00,
2013-01-12 02:00:00,46.2,44.6,29.93,South,178,0.0,-999.0,94,0.00,,,0.00,Wunderground v.1.15,2013-01-12 07:00:00,
2013-01-12 02:06:00,46.7,45.1,29.93,South,178,0.0,-999.0,94,0.00,,,0.00,Wunderground v.1.15,2013-01-12 07:06:00,
2013-01-12 02:12:00,46.8,45.2,29.93,South,178,0.0,-999.0,94,0.00,,,0.00,Wunderground v.1.15,2013-01-12 07:12:00,
2013-01-12 02:18:00,47.0,45.4,29.93,South,178,0.0,-999.0,94,0.00,,,0.00,Wunderground v.1.15,2013-01-12 07:18:00,
2013-01-12 02:24:00,47.4,45.8,29.93,South,178,0.0,-999.0,94,0.00,,,0.00,Wunderground v.1.15,2013-01-12 07:24:00,
2013-01-12 02:29:00,49.2,47.5,29.93,South,171,1.0,-999.0,94,0.00,,,0.00,Wunderground v.1.15,2013-01-12 07:29:00,
2013-01-12 02:35:00,50.4,48.7,29.94,South,181,3.0,-999.0,94,0.00,,,0.00,Wunderground v.1.15,2013-01-12 07:35:00,
2013-01-12 02:40:00,50.9,49.2,29.94,SSW,197,3.0,-999.0,94,0.00,,,0.00,Wunderground v.1.15,2013-01-12 07:40:00,
2013-01-12 02:46:00,51.0,49.3,29.94,SSW,197,2.0,-999.0,94,0.00,,,0.00,Wunderground v.1.15,2013-01-12 07:46:00,
2013-01-12 02:52:00,51.3,49.6,29.94,South,186,2.0,-999.0,94,0.00,,,0.00,Wunderground v.1.15,2013-01-12 07:52:00,
2013-01-12 02:58:00,51.7,50.0,29.94,SSW,198,2.0,-999.0,94,0.00,,,0.00,Wunderground v.1.15,2013-01-12 07:58:00,
2013-01-12 03:04:00,52.0,50.3,29.94,South,182,3.0,-999.0,94,0.00,,,0.00,Wunderground v.1.15,2013-01-12 08:04:00,
2013-01-12 03:10:00,52.2,50.5,29.94,South,188,3.0,-999.0,94,0.00,,,0.00,Wunderground v.1.15,2013-01-12 08:10:00,
2013-01-12 03:16:00,52.2,50.5,29.94,South,191,3.0,-999.0,94,0.00,,,0.00,Wunderground v.1.15,2013-01-12 08:16:00,
2013-01-12 03:22:00,52.1,50.4,29.94,South,190,2.0,-999.0,94,0.00,,,0.00,Wunderground v.1.15,2013-01-12 08:22:00,
2013-01-12 03:28:00,52.5,50.8,29.94,South,186,3.0,-999.0,94,0.00,,,0.00,Wunderground v.1.15,2013-01-12 08:28:00,
2013-01-12 03:33:00,52.6,50.9,29.94,South,191,3.0,-999.0,94,0.00,,,0.00,Wunderground v.1.15,2013-01-12 08:33:00,
2013-01-12 03:39:00,52.8,51.1,29.94,South,173,3.0,-999.0,94,0.00,,,0.00,Wunderground v.1.15,2013-01-12 08:39:00,
2013-01-12 03:45:00,53.1,51.4,29.94,SSW,198,4.0,-999.0,94,0.00,,,0.00,Wunderground v.1.15,2013-01-12 08:45:00,
2013-01-12 03:51:00,53.0,51.3,29.94,SSW,199,3.0,-999.0,94,0.00,,,0.00,Wunderground v.1.15,2013-01-12 08:51:00,
2013-01-12 03:57:00,53.1,51.4,29.94,SSW,194,3.0,-999.0,94,0.00,,,0.00,Wunderground v.1.15,2013-01-12 08:57:00,
2013-01-12 04:03:00,53.3,51.6,29.94,South,191,2.0,-999.0,94,0.00,,,0.00,Wunderground v.1.15,2013-01-12 09:03:00,
2013-01-12 04:09:00,53.5,51.8,29.94,South,189,3.0,-999.0,94,0.00,,,0.00,Wunderground v.1.15,2013-01-12 09:09:00,
2013-01-12 04:14:00,53.6,51.9,29.94,South,174,3.0,-999.0,94,0.00,,,0.00,Wunderground v.1.15,2013-01-12 09:14:00,
2013-01-12 04:20:00,53.7,52.0,29.93,SSW,192,3.0,-999.0,94,0.00,,,0.00,Wunderground v.1.15,2013-01-12 09:20:00,
2013-01-12 04:26:00,53.8,52.1,29.94,SSW,198,3.0,-999.0,94,0.00,,,0.00,Wunderground v.1.15,2013-01-12 09:26:00,
2013-01-12 04:32:00,54.0,52.3,29.94,South,191,4.0,-999.0,94,0.00,,,0.00,Wunderground v.1.15,2013-01-12 09:32:00,
2013-01-12 04:38:00,54.0,52.3,29.93,South,176,4.0,-999.0,94,0.00,,,0.00,Wunderground v.1.15,2013-01-12 09:38:00,
2013-01-12 04:44:00,54.0,52.3,29.94,South,184,4.0,-999.0,94,0.00,,,0.00,Wunderground v.1.15,2013-01-12 09:44:00,
2013-01-12 04:50:00,53.8,52.1,29.94,SSW,192,3.0,-999.0,94,0.00,,,0.00,Wunderground v.1.15,2013-01-12 09:50:00,
2013-01-12 04:56:00,53.9,52.2,29.94,South,186,2.0,-999.0,94,0.00,,,0.00,Wunderground v.1.15,2013-01-12 09:56:00,
2013-01-12 05:02:00,54.0,52.3,29.94,SSW,201,2.0,-999.0,94,0.00,,,0.00,Wunderground v.1.15,2013-01-12 10:02:00,
2013-01-12 05:08:00,54.1,52.4,29.94,South,184,2.0,-999.0,94,0.00,,,0.00,Wunderground v.1.15,2013-01-12 10:08:00,
2013-01-12 05:13:00,54.0,52.3,29.94,South,177,2.0,-999.0,94,0.00,,,0.00,Wunderground v.1.15,2013-01-12 10:13:00,
2013-01-12 05:19:00,54.0,52.3,29.94,South,187,3.0,-999.0,94,0.00,,,0.00,Wunderground v.1.15,2013-01-12 10:19:00,
2013-01-12 05:25:00,54.2,52.5,29.94,SSW,200,3.0,-999.0,94,0.00,,,0.00,Wunderground v.1.15,2013-01-12 10:25:00,
2013-01-12 05:31:00,54.5,52.8,29.94,South,189,3.0,-999.0,94,0.00,,,0.00,Wunderground v.1.15,2013-01-12 10:31:00,
2013-01-12 05:37:00,54.5,52.8,29.94,South,180,3.0,-999.0,94,0.00,,,0.00,Wunderground v.1.15,2013-01-12 10:37:00,
2013-01-12 05:43:00,54.7,53.0,29.94,South,190,4.0,-999.0,94,0.00,,,0.00,Wunderground v.1.15,2013-01-12 10:43:00,
2013-01-12 05:49:00,54.8,53.1,29.94,SSW,200,3.0,-999.0,94,0.00,,,0.00,Wunderground v.1.15,2013-01-12 10:49:00,
2013-01-12 05:55:00,54.8,53.1,29.94,SSW,194,2.0,-999.0,94,0.00,,,0.00,Wunderground v.1.15,2013-01-12 10:55:00,
2013-01-12 06:01:00,54.8,53.1,29.94,SSW,206,2.0,-999.0,94,0.00,,,0.00,Wunderground v.1.15,2013-01-12 11:01:00,
2013-01-12 06:07:00,54.9,53.2,29.94,SSW,192,3.0,-999.0,94,0.00,,,0.00,Wunderground v.1.15,2013-01-12 11:07:00,
2013-01-12 06:12:00,55.1,53.4,29.94,SSW,196,4.0,-999.0,94,0.00,,,0.00,Wunderground v.1.15,2013-01-12 11:12:00,
2013-01-12 06:18:00,55.2,53.5,29.94,SSW,209,3.0,-999.0,94,0.00,,,0.00,Wunderground v.1.15,2013-01-12 11:18:00,
2013-01-12 06:24:00,55.3,53.6,29.95,SSW,193,2.0,-999.0,94,0.00,,,0.00,Wunderground v.1.15,2013-01-12 11:24:00,
2013-01-12 06:30:00,55.4,53.7,29.95,SW,225,2.0,-999.0,94,0.00,,,0.00,Wunderground v.1.15,2013-01-12 11:30:00,
2013-01-12 06:36:00,55.5,53.8,29.95,WSW,252,2.0,-999.0,94,0.00,,,0.00,Wunderground v.1.15,2013-01-12 11:36:00,
2013-01-12 06:41:00,55.7,54.0,29.95,SSW,200,3.0,-999.0,94,0.00,,,0.00,Wunderground v.1.15,2013-01-12 11:41:00,
2013-01-12 06:47:00,55.8,54.1,29.96,SW,232,2.0,-999.0,94,0.00,,,0.00,Wunderground v.1.15,2013-01-12 11:47:00,
2013-01-12 06:53:00,55.8,54.1,29.96,SW,217,2.0,-999.0,94,0.00,,,0.00,Wunderground v.1.15,2013-01-12 11:53:00,
2013-01-12 06:58:00,55.7,54.0,29.96,WSW,249,3.0,-999.0,94,0.00,,,0.00,Wunderground v.1.15,2013-01-12 11:58:00,
2013-01-12 07:04:00,55.6,53.9,29.96,SW,219,2.0,-999.0,94,0.00,,,0.00,Wunderground v.1.15,2013-01-12 12:04:00,
2013-01-12 07:10:00,55.5,53.8,29.96,SSW,200,1.0,-999.0,94,0.00,,,0.00,Wunderground v.1.15,2013-01-12 12:10:00,
2013-01-12 07:16:00,55.5,53.8,29.96,South,184,2.0,-999.0,94,0.00,,,0.00,Wunderground v.1.15,2013-01-12 12:16:00,
2013-01-12 07:22:00,55.4,53.7,29.96,SW,234,2.0,-999.0,94,0.00,,,0.00,Wunderground v.1.15,2013-01-12 12:22:00,
2013-01-12 07:28:00,55.4,53.7,29.97,SW,223,2.0,-999.0,94,0.00,,,0.00,Wunderground v.1.15,2013-01-12 12:28:00,
2013-01-12 07:34:00,55.3,53.6,29.96,SSW,196,1.0,-999.0,94,0.00,,,0.00,Wunderground v.1.15,2013-01-12 12:34:00,
2013-01-12 07:40:00,55.2,53.2,29.97,SSW,206,1.0,-999.0,93,0.00,,,0.00,Wunderground v.1.15,2013-01-12 12:40:00,
2013-01-12 07:45:00,55.2,53.2,29.97,SSW,206,1.0,-999.0,93,0.00,,,0.00,Wunderground v.1.15,2013-01-12 12:45:00,
2013-01-12 07:50:00,55.1,53.1,29.97,SSW,206,1.0,-999.0,93,0.00,,,0.00,Wunderground v.1.15,2013-01-12 12:50:00,
2013-01-12 07:56:00,54.9,52.9,29.97,SSW,206,0.0,-999.0,93,0.00,,,0.00,Wunderground v.1.15,2013-01-12 12:56:00,
2013-01-12 08:02:00,54.6,52.6,29.97,SSW,206,0.0,-999.0,93,0.00,,,0.00,Wunderground v.1.15,2013-01-12 13:02:00,
2013-01-12 08:08:00,54.4,52.4,29.98,SSW,206,0.0,-999.0,93,0.00,,,0.00,Wunderground v.1.15,2013-01-12 13:08:00,
2013-01-12 08:14:00,54.4,52.4,29.98,SSW,206,0.0,-999.0,93,0.00,,,0.00,Wunderground v.1.15,2013-01-12 13:14:00,
2013-01-12 08:20:00,54.5,52.5,29.99,SSW,207,1.0,-999.0,93,0.00,,,0.00,Wunderground v.1.15,2013-01-12 13:20:00,
2013-01-12 08:26:00,54.7,53.0,29.99,SSW,207,1.0,-999.0,94,0.00,,,0.00,Wunderground v.1.15,2013-01-12 13:26:00,
2013-01-12 08:31:00,54.6,52.6,29.98,SSW,207,0.0,-999.0,93,0.00,,,0.00,Wunderground v.1.15,2013-01-12 13:31:00,
2013-01-12 08:37:00,54.0,52.0,29.98,SSW,207,0.0,-999.0,93,0.00,,,0.00,Wunderground v.1.15,2013-01-12 13:37:00,
2013-01-12 08:43:00,53.9,51.9,29.99,SSW,207,1.0,-999.0,93,0.00,,,0.00,Wunderground v.1.15,2013-01-12 13:43:00,
2013-01-12 08:49:00,54.3,52.6,29.98,South,181,2.0,-999.0,94,0.00,,,0.00,Wunderground v.1.15,2013-01-12 13:49:00,
2013-01-12 08:55:00,54.8,53.1,29.99,SSW,207,2.0,-999.0,94,0.00,,,0.00,Wunderground v.1.15,2013-01-12 13:55:00,
2013-01-12 09:00:00,55.1,53.4,29.98,SSW,207,2.0,-999.0,94,0.00,,,0.00,Wunderground v.1.15,2013-01-12 14:00:00,
2013-01-12 09:06:00,55.4,53.7,29.98,South,189,2.0,-999.0,94,0.00,,,0.00,Wunderground v.1.15,2013-01-12 14:06:00,
2013-01-12 09:12:00,56.0,54.3,29.98,SW,229,4.0,-999.0,94,0.00,,,0.00,Wunderground v.1.15,2013-01-12 14:12:00,
2013-01-12 09:18:00,56.2,54.5,29.99,South,169,3.0,-999.0,94,0.00,,,0.00,Wunderground v.1.15,2013-01-12 14:18:00,
2013-01-12 09:24:00,56.4,54.7,29.99,SW,227,4.0,-999.0,94,0.00,,,0.00,Wunderground v.1.15,2013-01-12 14:24:00,
2013-01-12 09:30:00,56.5,54.8,29.99,SE,132,4.0,-999.0,94,0.00,,,0.00,Wunderground v.1.15,2013-01-12 14:30:00,
2013-01-12 09:35:00,56.7,55.0,29.99,SW,223,4.0,-999.0,94,0.00,,,0.00,Wunderground v.1.15,2013-01-12 14:35:00,
2013-01-12 09:41:00,56.8,54.8,29.99,SSW,198,4.0,-999.0,93,0.00,,,0.00,Wunderground v.1.15,2013-01-12 14:41:00,
2013-01-12 09:47:00,56.8,54.8,29.99,SW,229,4.0,-999.0,93,0.00,,,0.00,Wunderground v.1.15,2013-01-12 14:47:00,
2013-01-12 09:52:00,56.8,54.8,29.99,West,261,5.0,-999.0,93,0.00,,,0.00,Wunderground v.1.15,2013-01-12 14:52:00,
2013-01-12 09:58:00,56.9,54.9,30.00,SSW,213,4.0,-999.0,93,0.00,,,0.00,Wunderground v.1.15,2013-01-12 14:58:00,
2013-01-12 10:04:00,57.0,54.7,30.00,SW,225,3.0,-999.0,92,0.00,,,0.00,Wunderground v.1.15,2013-01-12 15:04:00,
2013-01-12 10:10:00,57.2,54.9,30.00,South,184,4.0,-999.0,92,0.00,,,0.00,Wunderground v.1.15,2013-01-12 15:10:00,
2013-01-12 10:16:00,57.3,55.0,29.99,SSW,211,4.0,-999.0,92,0.00,,,0.00,Wunderground v.1.15,2013-01-12 15:16:00,
2013-01-12 10:22:00,57.6,55.3,29.99,SW,218,4.0,-999.0,92,0.00,,,0.00,Wunderground v.1.15,2013-01-12 15:22:00,
2013-01-12 10:28:00,57.7,55.1,29.99,WSW,240,6.0,-999.0,91,0.00,,,0.00,Wunderground v.1.15,2013-01-12 15:28:00,
2013-01-12 10:34:00,57.9,55.3,29.99,SSW,205,6.0,-999.0,91,0.00,,,0.00,Wunderground v.1.15,2013-01-12 15:34:00,
2013-01-12 10:39:00,58.0,55.4,29.99,SSW,211,5.0,-999.0,91,0.00,,,0.00,Wunderground v.1.15,2013-01-12 15:39:00,
2013-01-12 10:45:00,58.1,55.2,29.99,SSW,213,5.0,-999.0,90,0.00,,,0.00,Wunderground v.1.15,2013-01-12 15:45:00,
2013-01-12 10:51:00,58.1,55.2,29.99,South,187,4.0,-999.0,90,0.00,,,0.00,Wunderground v.1.15,2013-01-12 15:51:00,
2013-01-12 10:57:00,58.2,55.3,29.99,SSW,211,4.0,-999.0,90,0.00,,,0.00,Wunderground v.1.15,2013-01-12 15:57:00,
2013-01-12 11:03:00,58.3,55.4,29.99,SW,228,5.0,-999.0,90,0.00,,,0.00,Wunderground v.1.15,2013-01-12 16:03:00,
2013-01-12 11:09:00,58.4,55.5,29.99,South,184,5.0,-999.0,90,0.00,,,0.00,Wunderground v.1.15,2013-01-12 16:09:00,
2013-01-12 11:14:00,58.4,55.5,29.99,SW,235,5.0,-999.0,90,0.00,,,0.00,Wunderground v.1.15,2013-01-12 16:14:00,
2013-01-12 11:20:00,58.7,55.8,29.99,South,178,5.0,-999.0,90,0.00,,,0.00,Wunderground v.1.15,2013-01-12 16:20:00,
2013-01-12 11:26:00,59.1,55.9,29.98,SW,220,5.0,-999.0,89,0.00,,,0.00,Wunderground v.1.15,2013-01-12 16:26:00,
2013-01-12 11:31:00,59.3,55.7,29.98,South,178,5.0,-999.0,88,0.00,,,0.00,Wunderground v.1.15,2013-01-12 16:31:00,
2013-01-12 11:37:00,59.6,56.0,29.97,SSW,206,6.0,-999.0,88,0.00,,,0.00,Wunderground v.1.15,2013-01-12 16:37:00,
2013-01-12 11:43:00,59.7,56.1,29.97,SW,223,6.0,-999.0,88,0.00,,,0.00,Wunderground v.1.15,2013-01-12 16:43:00,
2013-01-12 11:49:00,59.9,56.3,29.97,South,184,4.0,-999.0,88,0.00,,,0.00,Wunderground v.1.15,2013-01-12 16:49:00,
2013-01-12 11:55:00,60.0,56.1,29.96,SSW,203,5.0,-999.0,87,0.00,,,0.00,Wunderground v.1.15,2013-01-12 16:55:00,
2013-01-12 12:01:00,60.2,56.3,29.96,SW,221,5.0,-999.0,87,0.00,,,0.00,Wunderground v.1.15,2013-01-12 17:01:00,
2013-01-12 12:07:00,60.3,56.4,29.96,SW,232,5.0,-999.0,87,0.00,,,0.00,Wunderground v.1.15,2013-01-12 17:07:00,
2013-01-12 12:12:00,60.6,56.7,29.96,SSW,211,5.0,-999.0,87,0.00,,,0.00,Wunderground v.1.15,2013-01-12 17:12:00,
2013-01-12 12:18:00,60.8,56.6,29.95,South,185,5.0,-999.0,86,0.00,,,0.00,Wunderground v.1.15,2013-01-12 17:18:00,
2013-01-12 12:24:00,61.3,57.1,29.95,SSW,206,5.0,-999.0,86,0.00,,,0.00,Wunderground v.1.15,2013-01-12 17:24:00,
2013-01-12 12:30:00,61.6,57.0,29.95,SW,231,6.0,-999.0,85,0.00,,,0.00,Wunderground v.1.15,2013-01-12 17:30:00,
2013-01-12 12:36:00,61.7,56.8,29.95,SW,226,6.0,-999.0,84,0.00,,,0.00,Wunderground v.1.15,2013-01-12 17:36:00,
2013-01-12 12:42:00,61.7,56.8,29.95,SW,221,5.0,-999.0,84,0.00,,,0.00,Wunderground v.1.15,2013-01-12 17:42:00,
2013-01-12 12:48:00,61.6,56.4,29.95,WSW,250,5.0,-999.0,83,0.00,,,0.00,Wunderground v.1.15,2013-01-12 17:48:00,
2013-01-12 12:53:00,61.5,56.3,29.94,SW,231,5.0,-999.0,83,0.00,,,0.00,Wunderground v.1.15,2013-01-12 17:53:00,
2013-01-12 12:59:00,61.6,56.4,29.95,SSW,197,5.0,-999.0,83,0.00,,,0.00,Wunderground v.1.15,2013-01-12 17:59:00,
2013-01-12 13:05:00,61.6,56.4,29.95,West,265,5.0,-999.0,83,0.00,,,0.00,Wunderground v.1.15,2013-01-12 18:05:00,
2013-01-12 13:11:00,61.5,56.0,29.95,SW,214,5.0,-999.0,82,0.00,,,0.00,Wunderground v.1.15,2013-01-12 18:11:00,
2013-01-12 13:17:00,61.6,56.4,29.95,SW,217,3.0,-999.0,83,0.00,,,0.00,Wunderground v.1.15,2013-01-12 18:17:00,
2013-01-12 13:22:00,61.7,56.5,29.95,SSW,193,3.0,-999.0,83,0.00,,,0.00,Wunderground v.1.15,2013-01-12 18:22:00,
2013-01-12 13:28:00,61.6,56.7,29.95,SW,232,4.0,-999.0,84,0.00,,,0.00,Wunderground v.1.15,2013-01-12 18:28:00,
2013-01-12 13:34:00,61.4,56.5,29.95,SSW,208,5.0,-999.0,84,0.00,,,0.00,Wunderground v.1.15,2013-01-12 18:34:00,
2013-01-12 13:40:00,61.4,56.8,29.95,SSW,195,5.0,-999.0,85,0.00,,,0.00,Wunderground v.1.15,2013-01-12 18:40:00,
2013-01-12 13:46:00,61.4,56.8,29.96,South,189,4.0,-999.0,85,0.00,,,0.00,Wunderground v.1.15,2013-01-12 18:46:00,
2013-01-12 13:51:00,61.4,56.5,29.96,SW,225,4.0,-999.0,84,0.00,,,0.00,Wunderground v.1.15,2013-01-12 18:51:00,
2013-01-12 13:57:00,61.3,56.4,29.96,SW,221,5.0,-999.0,84,0.00,,,0.00,Wunderground v.1.15,2013-01-12 18:57:00,
2013-01-12 14:03:00,61.3,56.4,29.96,SW,219,4.0,-999.0,84,0.00,,,0.00,Wunderground v.1.15,2013-01-12 19:03:00,
2013-01-12 14:09:00,61.3,56.4,29.96,SSW,192,4.0,-999.0,84,0.00,,,0.00,Wunderground v.1.15,2013-01-12 19:09:00,
2013-01-12 14:15:00,61.2,56.3,29.95,South,190,4.0,-999.0,84,0.00,,,0.00,Wunderground v.1.15,2013-01-12 19:15:00,
2013-01-12 14:21:00,61.1,56.2,29.95,SSW,200,4.0,-999.0,84,0.00,,,0.00,Wunderground v.1.15,2013-01-12 19:21:00,
2013-01-12 14:26:00,61.1,56.2,29.95,SSW,203,4.0,-999.0,84,0.00,,,0.00,Wunderground v.1.15,2013-01-12 19:26:00,
2013-01-12 14:32:00,61.1,56.2,29.95,SSW,197,4.0,-999.0,84,0.00,,,0.00,Wunderground v.1.15,2013-01-12 19:32:00,
2013-01-12 14:38:00,61.0,56.5,29.95,SW,221,4.0,-999.0,85,0.00,,,0.00,Wunderground v.1.15,2013-01-12 19:38:00,
2013-01-12 14:44:00,61.0,56.5,29.95,SSW,208,4.0,-999.0,85,0.00,,,0.00,Wunderground v.1.15,2013-01-12 19:44:00,
2013-01-12 14:50:00,61.0,56.5,29.95,SW,214,4.0,-999.0,85,0.00,,,0.00,Wunderground v.1.15,2013-01-12 19:50:00,
2013-01-12 14:56:00,61.1,56.6,29.95,SSW,211,3.0,-999.0,85,0.00,,,0.00,Wunderground v.1.15,2013-01-12 19:56:00,
2013-01-12 15:02:00,61.0,56.1,29.95,SSW,192,4.0,-999.0,84,0.00,,,0.00,Wunderground v.1.15,2013-01-12 20:02:00,
2013-01-12 15:07:00,61.0,56.1,29.95,South,190,5.0,-999.0,84,0.00,,,0.00,Wunderground v.1.15,2013-01-12 20:07:00,
2013-01-12 15:13:00,60.9,56.0,29.96,SSW,209,4.0,-999.0,84,0.00,,,0.00,Wunderground v.1.15,2013-01-12 20:13:00,
2013-01-12 15:19:00,60.9,56.0,29.96,South,188,4.0,-999.0,84,0.00,,,0.00,Wunderground v.1.15,2013-01-12 20:19:00,
2013-01-12 15:25:00,60.9,56.0,29.96,SSW,193,5.0,-999.0,84,0.00,,,0.00,Wunderground v.1.15,2013-01-12 20:25:00,
2013-01-12 15:30:00,60.9,56.0,29.96,SSW,202,5.0,-999.0,84,0.00,,,0.00,Wunderground v.1.15,2013-01-12 20:30:00,
2013-01-12 15:36:00,60.9,56.0,29.96,SSW,202,3.0,-999.0,84,0.00,,,0.00,Wunderground v.1.15,2013-01-12 20:36:00,
2013-01-12 15:42:00,60.9,56.4,29.96,SSW,195,3.0,-999.0,85,0.00,,,0.00,Wunderground v.1.15,2013-01-12 20:42:00,
2013-01-12 15:48:00,60.8,56.3,29.96,SSW,202,2.0,-999.0,85,0.00,,,0.00,Wunderground v.1.15,2013-01-12 20:48:00,
2013-01-12 15:54:00,60.8,56.3,29.96,South,186,3.0,-999.0,85,0.00,,,0.00,Wunderground v.1.15,2013-01-12 20:54:00,
2013-01-12 16:00:00,60.7,56.2,29.96,SSW,193,3.0,-999.0,85,0.00,,,0.00,Wunderground v.1.15,2013-01-12 21:00:00,
2013-01-12 16:06:00,60.6,56.1,29.95,South,182,3.0,-999.0,85,0.00,,,0.00,Wunderground v.1.15,2013-01-12 21:06:00,
2013-01-12 16:11:00,60.5,56.0,29.95,SSE,167,3.0,-999.0,85,0.00,,,0.00,Wunderground v.1.15,2013-01-12 21:11:00,
2013-01-12 16:17:00,60.2,56.0,29.95,SSE,167,3.0,-999.0,86,0.00,,,0.00,Wunderground v.1.15,2013-01-12 21:17:00,
2013-01-12 16:23:00,60.0,55.8,29.94,SSE,168,4.0,-999.0,86,0.00,,,0.00,Wunderground v.1.15,2013-01-12 21:23:00,
2013-01-12 16:29:00,59.6,55.7,29.94,SSE,167,4.0,-999.0,87,0.00,,,0.00,Wunderground v.1.15,2013-01-12 21:29:00,
2013-01-12 16:34:00,59.3,55.4,29.94,SSE,167,3.0,-999.0,87,0.00,,,0.00,Wunderground v.1.15,2013-01-12 21:34:00,
2013-01-12 16:40:00,59.0,55.1,29.94,SSE,168,3.0,-999.0,87,0.00,,,0.00,Wunderground v.1.15,2013-01-12 21:40:00,
2013-01-12 16:45:00,58.9,55.4,29.94,South,173,4.0,-999.0,88,0.00,,,0.00,Wunderground v.1.15,2013-01-12 21:45:00,
2013-01-12 16:51:00,58.9,55.4,29.95,South,177,4.0,-999.0,88,0.00,,,0.00,Wunderground v.1.15,2013-01-12 21:51:00,
2013-01-12 16:57:00,58.9,55.4,29.95,South,182,4.0,-999.0,88,0.00,,,0.00,Wunderground v.1.15,2013-01-12 21:57:00,
2013-01-12 17:03:00,58.6,55.1,29.94,South,182,2.0,-999.0,88,0.00,,,0.00,Wunderground v.1.15,2013-01-12 22:03:00,
2013-01-12 17:09:00,58.2,55.0,29.94,South,182,2.0,-999.0,89,0.00,,,0.00,Wunderground v.1.15,2013-01-12 22:09:00,
2013-01-12 17:15:00,57.7,54.5,29.94,South,182,2.0,-999.0,89,0.00,,,0.00,Wunderground v.1.15,2013-01-12 22:15:00,
2013-01-12 17:21:00,57.5,54.3,29.94,South,182,1.0,-999.0,89,0.00,,,0.00,Wunderground v.1.15,2013-01-12 22:21:00,
2013-01-12 17:27:00,57.4,54.5,29.94,South,182,0.0,-999.0,90,0.00,,,0.00,Wunderground v.1.15,2013-01-12 22:27:00,
2013-01-12 17:32:00,57.3,54.4,29.94,South,182,0.0,-999.0,90,0.00,,,0.00,Wunderground v.1.15,2013-01-12 22:32:00,
2013-01-12 17:38:00,57.3,54.4,29.94,South,182,0.0,-999.0,90,0.00,,,0.00,Wunderground v.1.15,2013-01-12 22:38:00,
2013-01-12 17:43:00,57.3,54.4,29.93,South,182,0.0,-999.0,90,0.00,,,0.00,Wunderground v.1.15,2013-01-12 22:43:00,
2013-01-12 17:49:00,57.1,54.2,29.93,South,182,0.0,-999.0,90,0.00,,,0.00,Wunderground v.1.15,2013-01-12 22:49:00,
2013-01-12 17:55:00,56.9,54.0,29.92,South,182,0.0,-999.0,90,0.00,,,0.00,Wunderground v.1.15,2013-01-12 22:55:00,
2013-01-12 18:00:00,56.7,53.8,29.92,South,182,0.0,-999.0,90,0.00,,,0.00,Wunderground v.1.15,2013-01-12 23:00:00,
2013-01-12 18:06:00,56.0,52.8,29.92,South,182,0.0,-999.0,89,0.00,,,0.00,Wunderground v.1.15,2013-01-12 23:06:00,
2013-01-12 18:12:00,55.8,53.2,29.92,South,182,0.0,-999.0,91,0.00,,,0.00,Wunderground v.1.15,2013-01-12 23:12:00,
2013-01-12 18:17:00,55.6,53.0,29.92,South,182,0.0,-999.0,91,0.00,,,0.00,Wunderground v.1.15,2013-01-12 23:17:00,
2013-01-12 18:23:00,55.5,52.9,29.92,South,182,0.0,-999.0,91,0.00,,,0.00,Wunderground v.1.15,2013-01-12 23:23:00,
2013-01-12 18:29:00,55.1,52.5,29.92,South,182,0.0,-999.0,91,0.00,,,0.00,Wunderground v.1.15,2013-01-12 23:29:00,
2013-01-12 18:35:00,55.0,52.4,29.92,South,182,0.0,-999.0,91,0.00,,,0.00,Wunderground v.1.15,2013-01-12 23:35:00,
2013-01-12 18:40:00,54.8,52.5,29.92,South,182,0.0,-999.0,92,0.00,,,0.00,Wunderground v.1.15,2013-01-12 23:40:00,
2013-01-12 18:46:00,54.7,52.4,29.92,South,182,0.0,-999.0,92,0.00,,,0.00,Wunderground v.1.15,2013-01-12 23:46:00,
2013-01-12 18:51:00,54.6,52.3,29.92,South,182,0.0,-999.0,92,0.00,,,0.00,Wunderground v.1.15,2013-01-12 23:51:00,
2013-01-12 18:57:00,54.6,52.3,29.92,South,182,0.0,-999.0,92,0.00,,,0.00,Wunderground v.1.15,2013-01-12 23:57:00,
2013-01-12 19:03:00,54.6,52.6,29.91,South,182,0.0,-999.0,93,0.00,,,0.00,Wunderground v.1.15,2013-01-13 00:03:00,
2013-01-12 19:09:00,54.1,51.8,29.91,South,182,0.0,-999.0,92,0.00,,,0.00,Wunderground v.1.15,2013-01-13 00:09:00,
2013-01-12 19:15:00,53.6,51.3,29.91,South,182,0.0,-999.0,92,0.00,,,0.00,Wunderground v.1.15,2013-01-13 00:15:00,
2013-01-12 19:21:00,53.5,51.2,29.91,South,182,0.0,-999.0,92,0.00,,,0.00,Wunderground v.1.15,2013-01-13 00:21:00,
2013-01-12 19:27:00,53.6,51.6,29.92,South,182,0.0,-999.0,93,0.00,,,0.00,Wunderground v.1.15,2013-01-13 00:27:00,
2013-01-12 19:32:00,53.7,51.7,29.92,South,182,0.0,-999.0,93,0.00,,,0.00,Wunderground v.1.15,2013-01-13 00:32:00,
2013-01-12 19:38:00,53.8,51.8,29.91,South,182,0.0,-999.0,93,0.00,,,0.00,Wunderground v.1.15,2013-01-13 00:38:00,
2013-01-12 19:44:00,53.9,51.9,29.91,South,182,0.0,-999.0,93,0.00,,,0.00,Wunderground v.1.15,2013-01-13 00:44:00,
2013-01-12 19:50:00,54.0,52.0,29.90,South,182,0.0,-999.0,93,0.00,,,0.00,Wunderground v.1.15,2013-01-13 00:50:00,
2013-01-12 19:56:00,54.1,52.4,29.90,South,182,0.0,-999.0,94,0.00,,,0.00,Wunderground v.1.15,2013-01-13 00:56:00,
2013-01-12 20:02:00,54.1,52.4,29.90,South,182,0.0,-999.0,94,0.00,,,0.00,Wunderground v.1.15,2013-01-13 01:02:00,
2013-01-12 20:08:00,54.1,52.4,29.90,South,182,0.0,-999.0,94,0.00,,,0.00,Wunderground v.1.15,2013-01-13 01:08:00,
2013-01-12 20:13:00,54.1,52.4,29.89,South,182,0.0,-999.0,94,0.00,,,0.00,Wunderground v.1.15,2013-01-13 01:13:00,
2013-01-12 20:18:00,54.3,52.6,29.89,South,182,0.0,-999.0,94,0.00,,,0.00,Wunderground v.1.15,2013-01-13 01:18:00,
2013-01-12 20:24:00,54.6,52.9,29.89,South,182,0.0,-999.0,94,0.00,,,0.00,Wunderground v.1.15,2013-01-13 01:24:00,
2013-01-12 20:30:00,54.8,53.1,29.89,South,182,0.0,-999.0,94,0.00,,,0.00,Wunderground v.1.15,2013-01-13 01:30:00,
2013-01-12 20:35:00,55.1,53.4,29.89,South,182,0.0,-999.0,94,0.00,,,0.00,Wunderground v.1.15,2013-01-13 01:35:00,
2013-01-12 20:41:00,55.3,53.6,29.89,South,182,0.0,-999.0,94,0.00,,,0.00,Wunderground v.1.15,2013-01-13 01:41:00,
2013-01-12 20:46:00,55.8,54.1,29.89,South,182,0.0,-999.0,94,0.00,,,0.00,Wunderground v.1.15,2013-01-13 01:46:00,
2013-01-12 20:52:00,56.3,54.6,29.89,South,182,0.0,-999.0,94,0.00,,,0.00,Wunderground v.1.15,2013-01-13 01:52:00,
2013-01-12 20:57:00,56.4,54.7,29.89,South,182,0.0,-999.0,94,0.00,,,0.00,Wunderground v.1.15,2013-01-13 01:57:00,
2013-01-12 21:03:00,56.4,54.7,29.89,South,182,0.0,-999.0,94,0.00,,,0.00,Wunderground v.1.15,2013-01-13 02:03:00,
2013-01-12 21:08:00,56.5,54.8,29.88,South,182,0.0,-999.0,94,0.00,,,0.00,Wunderground v.1.15,2013-01-13 02:08:00,
2013-01-12 21:14:00,56.5,54.8,29.88,South,182,0.0,-999.0,94,0.00,,,0.00,Wunderground v.1.15,2013-01-13 02:14:00,
2013-01-12 21:20:00,56.3,54.6,29.88,South,182,0.0,-999.0,94,0.00,,,0.00,Wunderground v.1.15,2013-01-13 02:20:00,
2013-01-12 21:26:00,56.4,54.7,29.87,South,182,0.0,-999.0,94,0.00,,,0.00,Wunderground v.1.15,2013-01-13 02:26:00,
2013-01-12 21:31:00,56.6,54.9,29.87,South,182,0.0,-999.0,94,0.00,,,0.00,Wunderground v.1.15,2013-01-13 02:31:00,
2013-01-12 21:37:00,57.2,55.5,29.87,South,182,0.0,-999.0,94,0.00,,,0.00,Wunderground v.1.15,2013-01-13 02:37:00,
2013-01-12 21:43:00,57.5,55.8,29.87,South,182,0.0,-999.0,94,0.00,,,0.00,Wunderground v.1.15,2013-01-13 02:43:00,
2013-01-12 21:49:00,57.5,55.8,29.87,South,182,0.0,-999.0,94,0.00,,,0.00,Wunderground v.1.15,2013-01-13 02:49:00,
2013-01-12 21:55:00,57.3,55.6,29.86,South,182,0.0,-999.0,94,0.00,,,0.00,Wunderground v.1.15,2013-01-13 02:55:00,
2013-01-12 22:01:00,57.1,55.4,29.86,South,182,0.0,-999.0,94,0.00,,,0.00,Wunderground v.1.15,2013-01-13 03:01:00,
2013-01-12 22:07:00,57.0,55.3,29.86,South,182,0.0,-999.0,94,0.00,,,0.00,Wunderground v.1.15,2013-01-13 03:07:00,
2013-01-12 22:13:00,57.2,55.5,29.86,South,182,0.0,-999.0,94,0.00,,,0.00,Wunderground v.1.15,2013-01-13 03:13:00,
2013-01-12 22:19:00,57.4,55.7,29.86,South,182,0.0,-999.0,94,0.00,,,0.00,Wunderground v.1.15,2013-01-13 03:19:00,
2013-01-12 22:24:00,57.5,55.8,29.85,South,182,0.0,-999.0,94,0.00,,,0.00,Wunderground v.1.15,2013-01-13 03:24:00,
2013-01-12 22:30:00,57.4,55.7,29.85,South,182,0.0,-999.0,94,0.00,,,0.00,Wunderground v.1.15,2013-01-13 03:30:00,
2013-01-12 22:36:00,57.4,55.7,29.85,South,182,0.0,-999.0,94,0.00,,,0.00,Wunderground v.1.15,2013-01-13 03:36:00,
2013-01-12 22:42:00,57.5,55.8,29.84,South,182,0.0,-999.0,94,0.00,,,0.00,Wunderground v.1.15,2013-01-13 03:42:00,
2013-01-12 22:48:00,58.1,56.4,29.84,South,182,0.0,-999.0,94,0.00,,,0.00,Wunderground v.1.15,2013-01-13 03:48:00,
2013-01-12 22:54:00,58.4,56.7,29.84,South,182,0.0,-999.0,94,0.00,,,0.00,Wunderground v.1.15,2013-01-13 03:54:00,
2013-01-12 23:00:00,58.4,56.7,29.84,South,182,0.0,-999.0,94,0.00,,,0.00,Wunderground v.1.15,2013-01-13 04:00:00,
2013-01-12 23:06:00,58.4,56.7,29.84,South,182,1.0,-999.0,94,0.00,,,0.00,Wunderground v.1.15,2013-01-13 04:06:00,
2013-01-12 23:12:00,58.2,56.5,29.84,South,177,3.0,-999.0,94,0.00,,,0.00,Wunderground v.1.15,2013-01-13 04:12:00,
2013-01-12 23:18:00,58.7,57.0,29.83,SSE,167,5.0,-999.0,94,0.00,,,0.00,Wunderground v.1.15,2013-01-13 04:18:00,
2013-01-12 23:24:00,59.2,57.5,29.83,SSE,149,5.0,-999.0,94,0.00,,,0.00,Wunderground v.1.15,2013-01-13 04:24:00,
2013-01-12 23:30:00,59.2,57.5,29.83,SSE,165,3.0,-999.0,94,0.00,,,0.00,Wunderground v.1.15,2013-01-13 04:30:00,
2013-01-12 23:35:00,59.3,57.6,29.83,SSE,157,2.0,-999.0,94,0.00,,,0.00,Wunderground v.1.15,2013-01-13 04:35:00,
2013-01-12 23:41:00,59.3,57.6,29.83,SSE,151,2.0,-999.0,94,0.00,,,0.00,Wunderground v.1.15,2013-01-13 04:41:00,
2013-01-12 23:47:00,59.2,57.2,29.82,SSE,151,1.0,-999.0,93,0.00,,,0.00,Wunderground v.1.15,2013-01-13 04:47:00,
2013-01-12 23:53:00,59.1,57.1,29.83,SSE,152,1.0,-999.0,93,0.00,,,0.00,Wunderground v.1.15,2013-01-13 04:53:00,
2013-01-12 23:59:00,58.8,56.5,29.82,SSE,152,1.0,-999.0,92,0.00,,,0.00,Wunderground v.1.15,2013-01-13 04:59:00,